Station: Mackay  

  Atmospheric Gas Attenuation - ITU Rec 676-11   ----------------- dB/100km -----------------
Date Time Temp RH % AH g/m3 Dew Point Wind Direction Speed kph Gust kph Barometer mB Rainfall Since 9am 24GHz 47GHz 76GHz 122GHz 134GHz 241GHz
31/08 14:50 23.8 62 13.34 16.1 19 30 1024.2 0 29.0 30.9 53.7 141.6 147.1 509.9
31/08 14:40 23.1 64 13.23 15.9 19 33 1024.2 0 28.8 31.0 53.8 141.7 146.9 509.3
31/08 14:30 22.8 63 12.8 15.4 19 32 1024.2 0 28.0 30.3 52.2 137.5 141.7 490.8
31/08 14:20 23.3 61 12.75 15.4 20 33 1024.2 0 27.8 30.1 51.7 136.1 140.1 485.4
31/08 14:10 23 61 12.54 15.1 20 30 1024.2 0 27.4 29.8 51.0 134.3 137.8 477.4
31/08 14:00 23.3 61 12.75 15.4 19 32 1024.2 0 27.8 30.1 51.7 136.1 140.1 485.4
31/08 13:50 23.5 60 12.69 15.3 19 37 1024.3 0 27.7 29.9 51.3 135.1 138.9 481.4
31/08 13:40 23 63 12.95 15.6 20 32 1024.3 0 28.3 30.5 52.7 138.8 143.3 496.7
31/08 13:30 23.4 59 12.41 14.9 20 35 1024.4 0 27.1 29.5 50.2 132.2 135.4 469.0
31/08 13:20 23.9 60 12.98 15.7 20 35 1024.5 0 28.3 30.3 52.2 137.6 142.1 492.5
31/08 13:10 23.4 60 12.62 15.2 22 37 1024.7 0 27.5 29.9 51.1 134.5 138.2 478.9
31/08 13:00 23.3 59 12.34 14.8 22 37 1024.8 0 27.0 29.4 50.0 131.7 134.7 466.5
31/08 12:50 23.7 61 13.05 15.7 20 30 1024.8 0 28.4 30.5 52.6 138.7 143.4 497.1
31/08 12:40 23.6 61 12.97 15.6 20 35 1024.9 0 28.3 30.4 52.4 138.0 142.6 494.1
31/08 12:30 23.9 63 13.63 16.4 20 37 1025.1 0 29.6 31.4 54.9 144.8 150.9 523.4
31/08 12:20 23.5 65 13.75 16.5 22 35 1025.3 0 29.9 31.7 55.7 146.9 153.4 531.9
31/08 12:10 23.2 65 13.51 16.3 20 33 1025.4 0 29.4 31.4 54.9 144.8 150.7 522.4
31/08 12:00 23.6 64 13.61 16.4 20 35 1025.5 0 29.6 31.5 55.1 145.2 151.3 524.6
31/08 11:50 24.2 63 13.86 16.7 20 35 1025.6 0 30.1 31.7 55.7 146.8 153.6 532.5
31/08 11:40 23.8 65 13.98 16.8 20 35 1025.6 0 30.4 32.0 56.5 148.9 156.0 541.0
31/08 11:30 23.4 64 13.46 16.2 20 35 1025.6 0 29.3 31.3 54.6 143.9 149.7 518.8
31/08 11:20 23.3 62 12.96 15.6 20 37 1025.8 0 28.3 30.5 52.6 138.6 143.1 495.8
31/08 11:10 23.5 65 13.75 16.5 19 32 1026 0 29.9 31.8 55.8 147.0 153.5 532.2
31/08 11:00 23.7 66 14.12 17 20 35 1026.1 0 30.7 32.3 57.2 150.8 158.2 548.6
31/08 10:50 24 66 14.36 17.3 19 32 1026.2 0 31.2 32.6 58.0 152.9 160.9 558.2
31/08 10:40 22.9 66 13.49 16.2 20 33 1026.2 0 29.4 31.5 55.1 145.2 151.1 523.8
31/08 10:30 22.8 69 14.02 16.8 22 37 1026.3 0 30.5 32.5 57.4 151.4 158.7 550.2
31/08 10:20 22 69 13.39 16.1 22 41 1026.2 0 29.3 31.7 55.3 145.8 151.5 525.0
31/08 10:10 22.7 66 13.33 16 24 37 1026.3 0 29.1 31.4 54.6 143.8 149.3 517.5
31/08 10:00 22.3 67 13.23 15.9 22 35 1026.3 0 28.9 31.3 54.4 143.4 148.7 515.3
31/08 09:50 23.2 64 13.3 16 20 35 1026.4 0 29.0 31.1 54.1 142.6 147.9 512.8
31/08 09:40 23 65 13.36 16.1 20 35 1026.4 0 29.1 31.3 54.5 143.6 149.2 517.0
31/08 09:30 22.5 64 12.78 15.4 20 37 1026.4 0 27.9 30.5 52.4 138.1 142.2 492.6
31/08 09:20 22.9 61 12.47 15 20 33 1026.4 0 27.3 29.9 50.9 134.0 137.3 475.5
31/08 09:10 22.6 62 12.45 15 20 37 1026.3 0 27.2 29.9 51.0 134.3 137.5 476.4
31/08 09:00 22.4 65 12.91 15.5 20 35 1026.3 0 28.2 30.8 53.0 139.7 144.1 499.4
31/08 08:50 22.2 65 12.76 15.3 22 35 1026.2 0 27.9 30.6 52.5 138.3 142.4 493.5
31/08 08:40 22.5 65 12.98 15.6 20 33 1026.1 0 28.4 30.8 53.2 140.2 144.9 502.0
31/08 08:30 21.8 63 12.09 14.4 22 35 1026 0 26.5 29.6 50.0 131.6 134.1 464.2
31/08 08:20 21.6 61 11.57 13.8 22 33 1026 0 25.4 28.8 48.0 126.3 127.5 441.2
31/08 08:10 21.7 61 11.64 13.9 20 35 1025.8 0 25.6 28.9 48.2 126.9 128.2 443.8
31/08 08:00 21.5 62 11.69 13.9 24 41 1025.8 0 25.7 29.0 48.6 127.8 129.2 447.2
31/08 07:50 20.9 69 12.57 15 24 39 1025.7 0 27.6 30.7 52.6 138.5 142.2 492.4
31/08 07:40 20.9 67 12.2 14.5 22 39 1025.5 0 26.8 30.1 51.0 134.3 137.1 474.6
31/08 07:30 21.2 69 12.79 15.3 22 39 1025.4 0 28.0 30.9 53.3 140.4 144.6 501.0
31/08 07:20 20.9 69 12.57 15 20 37 1025.2 0 27.6 30.7 52.6 138.4 142.1 492.2
31/08 07:10 20.9 67 12.2 14.5 22 39 1025 0 26.8 30.0 51.0 134.3 137.1 474.4
31/08 07:00 20.5 76 13.52 16.1 20 33 1025 0 29.6 32.4 56.9 149.9 156.2 541.3
31/08 06:50 20.1 77 13.38 15.9 20 32 1024.9 0 29.4 32.3 56.6 149.1 155.0 537.1
31/08 06:40 20.2 76 13.29 15.8 19 32 1024.9 0 29.2 32.1 56.1 147.8 153.5 531.9
31/08 06:30 20 77 13.31 15.8 19 33 1024.8 0 29.2 32.2 56.3 148.4 154.2 534.2
31/08 06:20 19.9 78 13.4 16 19 30 1024.7 0 29.4 32.4 56.8 149.7 155.7 539.4
31/08 06:10 19.9 79 13.57 16.2 17 28 1024.6 0 29.8 32.7 57.5 151.6 158.1 547.8
31/08 06:00 20 75 12.96 15.4 20 33 1024.5 0 28.5 31.6 54.8 144.4 149.2 516.8
31/08 05:50 20.2 75 13.11 15.6 20 32 1024.5 0 28.8 31.8 55.3 145.7 150.9 522.8
31/08 05:40 20.2 74 12.94 15.4 20 33 1024.5 0 28.4 31.5 54.6 143.8 148.5 514.5
31/08 05:30 20.2 73 12.76 15.2 20 37 1024.4 0 28.1 31.2 53.8 141.7 146.0 505.6
31/08 05:20 20 77 13.31 15.8 20 33 1024.2 0 29.2 32.2 56.3 148.4 154.1 534.0
31/08 05:10 20 79 13.65 16.2 22 37 1024.1 0 30.0 32.8 57.8 152.3 159.0 550.9
31/08 05:00 19.8 82 14 16.6 20 39 1024.1 0 30.7 33.5 59.5 156.8 164.5 570.1
31/08 04:50 19.7 82 13.92 16.5 24 39 1024 0 30.6 33.4 59.2 156.1 163.5 566.7
31/08 04:40 19.7 82 13.92 16.5 26 44 1023.9 0 30.6 33.4 59.2 156.1 163.5 566.7
31/08 04:30 20.4 77 13.62 16.2 19 32 1023.8 0 29.9 32.6 57.3 151.1 157.7 546.5
31/08 04:20 20.4 76 13.44 16 19 30 1023.8 0 29.5 32.3 56.5 149.1 155.1 537.5
31/08 04:10 20.3 75 13.19 15.7 20 33 1023.8 0 29.0 31.9 55.5 146.4 151.8 525.8
31/08 04:00 20.1 79 13.73 16.3 20 33 1023.8 0 30.1 32.9 58.0 153.0 159.9 554.1
31/08 03:50 19.7 86 14.6 17.3 20 30 1023.7 0 32.0 34.6 62.2 164.2 173.5 601.5
31/08 03:40 19.4 87 14.51 17.2 20 37 1023.8 0 31.8 34.6 62.1 163.8 172.9 599.3
31/08 03:30 19.3 86 14.26 16.9 24 41 1023.8 0 31.3 34.2 61.0 160.9 169.4 587.1
31/08 03:20 20.3 80 14.07 16.7 19 39 1023.7 0 30.8 33.4 59.4 156.6 164.4 569.8
31/08 03:10 20.6 76 13.6 16.2 19 26 1023.8 0 29.8 32.5 57.1 150.5 157.0 544.1
31/08 03:00 20.6 76 13.6 16.2 17 28 1023.9 0 29.8 32.5 57.1 150.5 157.0 544.1
31/08 02:50 20.5 76 13.52 16.1 17 24 1024 0 29.6 32.4 56.8 149.8 156.1 540.9
31/08 02:40 20.4 73 12.91 15.4 20 33 1023.9 0 28.4 31.4 54.3 143.0 147.7 511.4
31/08 02:30 20.4 73 12.91 15.4 20 33 1023.9 0 28.4 31.4 54.3 143.0 147.7 511.4
31/08 02:20 20.3 76 13.37 15.9 19 30 1023.9 0 29.3 32.2 56.3 148.4 154.4 534.8
31/08 02:10 20.3 77 13.54 16.1 17 33 1024 0 29.7 32.5 57.1 150.4 156.8 543.3
31/08 02:00 20.1 78 13.56 16.1 17 28 1024 0 29.8 32.6 57.3 151.1 157.5 545.7
31/08 01:50 20.2 78 13.64 16.2 20 24 1024.2 0 29.9 32.7 57.6 151.8 158.5 549.1
31/08 01:40 20.3 77 13.54 16.1 17 33 1024.3 0 29.7 32.5 57.1 150.5 156.8 543.4
31/08 01:30 20.3 75 13.19 15.7 20 30 1024.3 0 29.0 31.9 55.6 146.4 151.8 526.0
31/08 01:20 20.3 78 13.72 16.3 17 28 1024.5 0 30.1 32.8 57.9 152.6 159.4 552.5
31/08 01:10 20.3 78 13.72 16.3 17 30 1024.5 0 30.1 32.8 57.9 152.6 159.4 552.5
31/08 01:00 19.9 84 14.43 17.1 17 30 1024.7 0 31.6 34.3 61.4 161.9 170.7 591.6
31/08 00:50 20.2 82 14.34 17 17 28 1024.8 0 31.4 34.0 60.7 160.2 168.7 584.7
31/08 00:40 20.3 82 14.42 17.1 17 22 1024.9 0 31.6 34.1 61.0 160.9 169.7 588.1
31/08 00:30 20.1 81 14.08 16.7 17 28 1025 0 30.9 33.6 59.7 157.3 165.1 572.3
31/08 00:20 20 81 14 16.6 17 28 1025.1 0 30.7 33.5 59.4 156.6 164.2 569.0
31/08 00:10 20 82 14.17 16.8 17 28 1025.2 0 31.1 33.8 60.1 158.6 166.7 577.7
31/08 00:00 20 82 14.17 16.8 15 24 1025.3 0 31.1 33.8 60.1 158.6 166.7 577.8
30/08 23:50 20.1 81 14.08 16.7 15 28 1025.4 0 30.9 33.6 59.7 157.4 165.2 572.5
30/08 23:40 20.1 79 13.73 16.3 17 28 1025.4 0 30.1 33.0 58.1 153.2 160.1 554.8
30/08 23:30 20.2 79 13.81 16.4 15 28 1025.4 0 30.3 33.1 58.4 154.0 161.0 558.1
30/08 23:20 20.3 78 13.72 16.3 15 26 1025.5 0 30.1 32.9 57.9 152.7 159.6 552.9
30/08 23:10 20.1 79 13.73 16.3 15 28 1025.5 0 30.1 33.0 58.1 153.2 160.1 554.8
30/08 23:00 19.9 80 13.74 16.3 13 24 1025.5 0 30.2 33.1 58.3 153.8 160.7 556.8
30/08 22:50 19.9 80 13.74 16.3 15 22 1025.4 0 30.2 33.1 58.3 153.7 160.7 556.7
30/08 22:40 20.1 78 13.56 16.1 13 22 1025.5 0 29.8 32.7 57.4 151.2 157.7 546.3
30/08 22:30 20.2 76 13.29 15.8 15 22 1025.5 0 29.2 32.2 56.1 147.9 153.6 532.1
30/08 22:20 20 77 13.31 15.8 15 24 1025.5 0 29.2 32.3 56.4 148.5 154.3 534.5

Last Refresh: 31-Aug-2026 14:36:12

Bureau of Meteorology